sensor_id;sensor_type;location;lat;lon;timestamp;P1;durP1;ratioP1;P2;durP2;ratioP2
6344;SDS011;3205;42.666;23.264;2023-05-07T00:00:27;9.30;;;6.37;;
6344;SDS011;3205;42.666;23.264;2023-05-07T00:02:53;8.30;;;6.07;;
6344;SDS011;3205;42.666;23.264;2023-05-07T00:05:20;6.73;;;5.80;;
6344;SDS011;3205;42.666;23.264;2023-05-07T00:07:46;8.03;;;6.30;;
6344;SDS011;3205;42.666;23.264;2023-05-07T00:10:12;13.77;;;5.50;;
6344;SDS011;3205;42.666;23.264;2023-05-07T00:12:40;7.73;;;5.70;;
6344;SDS011;3205;42.666;23.264;2023-05-07T00:15:06;8.37;;;6.00;;
6344;SDS011;3205;42.666;23.264;2023-05-07T00:17:33;8.90;;;5.77;;
6344;SDS011;3205;42.666;23.264;2023-05-07T00:19:59;8.47;;;5.47;;
6344;SDS011;3205;42.666;23.264;2023-05-07T00:22:26;8.50;;;5.90;;
6344;SDS011;3205;42.666;23.264;2023-05-07T00:24:52;7.47;;;5.53;;
6344;SDS011;3205;42.666;23.264;2023-05-07T00:27:19;6.77;;;5.33;;
6344;SDS011;3205;42.666;23.264;2023-05-07T00:29:45;9.27;;;5.57;;
6344;SDS011;3205;42.666;23.264;2023-05-07T00:32:11;10.37;;;6.33;;
6344;SDS011;3205;42.666;23.264;2023-05-07T00:34:37;11.97;;;6.53;;
6344;SDS011;3205;42.666;23.264;2023-05-07T00:37:04;8.20;;;6.13;;
6344;SDS011;3205;42.666;23.264;2023-05-07T00:39:33;12.03;;;6.90;;
6344;SDS011;3205;42.666;23.264;2023-05-07T00:41:59;9.87;;;6.47;;
6344;SDS011;3205;42.666;23.264;2023-05-07T00:44:26;8.97;;;6.70;;
6344;SDS011;3205;42.666;23.264;2023-05-07T00:46:53;12.50;;;6.83;;
6344;SDS011;3205;42.666;23.264;2023-05-07T00:49:20;11.13;;;6.33;;
6344;SDS011;3205;42.666;23.264;2023-05-07T00:51:46;6.43;;;5.57;;
6344;SDS011;3205;42.666;23.264;2023-05-07T00:54:12;11.87;;;6.83;;
6344;SDS011;3205;42.666;23.264;2023-05-07T00:56:39;8.37;;;5.97;;
6344;SDS011;3205;42.666;23.264;2023-05-07T00:59:06;12.80;;;6.13;;
6344;SDS011;3205;42.666;23.264;2023-05-07T01:01:32;12.77;;;6.60;;
6344;SDS011;3205;42.666;23.264;2023-05-07T01:03:58;10.57;;;6.70;;
6344;SDS011;3205;42.666;23.264;2023-05-07T01:06:24;11.43;;;5.60;;
6344;SDS011;3205;42.666;23.264;2023-05-07T01:08:52;7.77;;;6.07;;
6344;SDS011;3205;42.666;23.264;2023-05-07T01:11:22;10.47;;;6.20;;
6344;SDS011;3205;42.666;23.264;2023-05-07T01:13:49;9.93;;;7.53;;
6344;SDS011;3205;42.666;23.264;2023-05-07T01:16:16;15.40;;;8.10;;
6344;SDS011;3205;42.666;23.264;2023-05-07T01:18:43;17.40;;;9.97;;
6344;SDS011;3205;42.666;23.264;2023-05-07T01:21:10;10.90;;;6.70;;
6344;SDS011;3205;42.666;23.264;2023-05-07T01:23:37;8.80;;;6.80;;
6344;SDS011;3205;42.666;23.264;2023-05-07T01:26:04;9.07;;;6.73;;
6344;SDS011;3205;42.666;23.264;2023-05-07T01:28:31;10.93;;;7.37;;
6344;SDS011;3205;42.666;23.264;2023-05-07T01:30:58;13.17;;;8.13;;
6344;SDS011;3205;42.666;23.264;2023-05-07T01:33:28;14.17;;;7.33;;
6344;SDS011;3205;42.666;23.264;2023-05-07T01:35:57;12.07;;;7.83;;
6344;SDS011;3205;42.666;23.264;2023-05-07T01:38:25;14.07;;;7.20;;
6344;SDS011;3205;42.666;23.264;2023-05-07T01:40:53;10.67;;;7.47;;
6344;SDS011;3205;42.666;23.264;2023-05-07T01:43:19;13.80;;;7.40;;
6344;SDS011;3205;42.666;23.264;2023-05-07T01:45:45;10.37;;;7.53;;
6344;SDS011;3205;42.666;23.264;2023-05-07T01:48:14;11.60;;;7.47;;
6344;SDS011;3205;42.666;23.264;2023-05-07T01:50:40;9.63;;;7.63;;
6344;SDS011;3205;42.666;23.264;2023-05-07T01:53:08;13.30;;;7.90;;
6344;SDS011;3205;42.666;23.264;2023-05-07T01:55:34;9.33;;;7.03;;
6344;SDS011;3205;42.666;23.264;2023-05-07T01:58:02;9.33;;;8.00;;
6344;SDS011;3205;42.666;23.264;2023-05-07T02:00:28;10.87;;;7.67;;
6344;SDS011;3205;42.666;23.264;2023-05-07T02:02:54;10.53;;;7.40;;
6344;SDS011;3205;42.666;23.264;2023-05-07T02:05:21;9.97;;;7.17;;
6344;SDS011;3205;42.666;23.264;2023-05-07T02:07:47;10.80;;;7.70;;
6344;SDS011;3205;42.666;23.264;2023-05-07T02:10:16;10.03;;;7.07;;
6344;SDS011;3205;42.666;23.264;2023-05-07T02:12:42;10.97;;;7.33;;
6344;SDS011;3205;42.666;23.264;2023-05-07T02:15:09;9.73;;;7.10;;
6344;SDS011;3205;42.666;23.264;2023-05-07T02:17:38;17.13;;;8.77;;
6344;SDS011;3205;42.666;23.264;2023-05-07T02:20:23;11.67;;;7.10;;
6344;SDS011;3205;42.666;23.264;2023-05-07T02:22:49;9.43;;;7.47;;
6344;SDS011;3205;42.666;23.264;2023-05-07T02:25:15;10.50;;;7.53;;
6344;SDS011;3205;42.666;23.264;2023-05-07T02:27:41;12.97;;;7.57;;
6344;SDS011;3205;42.666;23.264;2023-05-07T02:30:07;15.27;;;7.83;;
6344;SDS011;3205;42.666;23.264;2023-05-07T02:32:35;20.33;;;7.33;;
6344;SDS011;3205;42.666;23.264;2023-05-07T02:35:01;13.57;;;7.10;;
6344;SDS011;3205;42.666;23.264;2023-05-07T02:37:27;12.23;;;7.17;;
6344;SDS011;3205;42.666;23.264;2023-05-07T02:39:53;8.53;;;7.47;;
6344;SDS011;3205;42.666;23.264;2023-05-07T02:42:19;12.87;;;7.50;;
6344;SDS011;3205;42.666;23.264;2023-05-07T02:44:45;16.03;;;7.53;;
6344;SDS011;3205;42.666;23.264;2023-05-07T02:47:13;11.13;;;7.90;;
6344;SDS011;3205;42.666;23.264;2023-05-07T02:49:40;12.30;;;7.97;;
6344;SDS011;3205;42.666;23.264;2023-05-07T02:52:07;14.33;;;7.57;;
6344;SDS011;3205;42.666;23.264;2023-05-07T02:54:33;10.50;;;7.83;;
6344;SDS011;3205;42.666;23.264;2023-05-07T02:56:59;13.47;;;8.20;;
6344;SDS011;3205;42.666;23.264;2023-05-07T02:59:26;16.63;;;10.07;;
6344;SDS011;3205;42.666;23.264;2023-05-07T03:01:52;12.70;;;8.60;;
6344;SDS011;3205;42.666;23.264;2023-05-07T03:04:18;10.43;;;7.53;;
6344;SDS011;3205;42.666;23.264;2023-05-07T03:06:45;9.80;;;7.70;;
6344;SDS011;3205;42.666;23.264;2023-05-07T03:09:12;11.40;;;7.47;;
6344;SDS011;3205;42.666;23.264;2023-05-07T03:11:38;9.63;;;7.40;;
6344;SDS011;3205;42.666;23.264;2023-05-07T03:14:04;10.87;;;8.00;;
6344;SDS011;3205;42.666;23.264;2023-05-07T03:16:30;12.90;;;8.03;;
6344;SDS011;3205;42.666;23.264;2023-05-07T03:18:56;11.27;;;7.60;;
6344;SDS011;3205;42.666;23.264;2023-05-07T03:21:23;10.97;;;7.40;;
6344;SDS011;3205;42.666;23.264;2023-05-07T03:23:49;11.10;;;7.70;;
6344;SDS011;3205;42.666;23.264;2023-05-07T03:26:15;17.00;;;8.63;;
6344;SDS011;3205;42.666;23.264;2023-05-07T03:28:41;10.83;;;7.70;;
6344;SDS011;3205;42.666;23.264;2023-05-07T03:31:07;12.33;;;7.97;;
6344;SDS011;3205;42.666;23.264;2023-05-07T03:33:33;12.07;;;8.00;;
6344;SDS011;3205;42.666;23.264;2023-05-07T03:35:59;15.27;;;8.37;;
6344;SDS011;3205;42.666;23.264;2023-05-07T03:38:26;11.67;;;8.07;;
6344;SDS011;3205;42.666;23.264;2023-05-07T03:40:52;16.00;;;7.90;;
6344;SDS011;3205;42.666;23.264;2023-05-07T03:43:18;11.70;;;7.83;;
6344;SDS011;3205;42.666;23.264;2023-05-07T03:45:44;14.87;;;7.70;;
6344;SDS011;3205;42.666;23.264;2023-05-07T03:48:11;9.37;;;7.60;;
6344;SDS011;3205;42.666;23.264;2023-05-07T03:50:37;11.70;;;7.33;;
6344;SDS011;3205;42.666;23.264;2023-05-07T03:53:03;10.33;;;7.53;;
6344;SDS011;3205;42.666;23.264;2023-05-07T03:55:30;15.93;;;7.50;;
6344;SDS011;3205;42.666;23.264;2023-05-07T03:57:56;10.77;;;7.10;;
6344;SDS011;3205;42.666;23.264;2023-05-07T04:00:22;16.33;;;6.70;;
6344;SDS011;3205;42.666;23.264;2023-05-07T04:02:48;11.97;;;7.03;;
6344;SDS011;3205;42.666;23.264;2023-05-07T04:05:14;15.83;;;6.83;;
6344;SDS011;3205;42.666;23.264;2023-05-07T04:07:40;15.43;;;6.93;;
6344;SDS011;3205;42.666;23.264;2023-05-07T04:10:07;9.53;;;6.50;;
6344;SDS011;3205;42.666;23.264;2023-05-07T04:12:34;9.47;;;6.57;;
6344;SDS011;3205;42.666;23.264;2023-05-07T04:15:00;11.97;;;6.93;;
6344;SDS011;3205;42.666;23.264;2023-05-07T04:17:26;10.10;;;6.17;;
6344;SDS011;3205;42.666;23.264;2023-05-07T04:19:52;9.97;;;6.07;;
6344;SDS011;3205;42.666;23.264;2023-05-07T04:22:18;9.77;;;5.77;;
6344;SDS011;3205;42.666;23.264;2023-05-07T04:24:44;6.80;;;5.43;;
6344;SDS011;3205;42.666;23.264;2023-05-07T04:27:12;8.13;;;4.97;;
6344;SDS011;3205;42.666;23.264;2023-05-07T04:29:39;8.80;;;5.45;;
6344;SDS011;3205;42.666;23.264;2023-05-07T04:32:07;5.82;;;5.05;;
6344;SDS011;3205;42.666;23.264;2023-05-07T04:34:34;6.25;;;4.72;;
6344;SDS011;3205;42.666;23.264;2023-05-07T04:37:00;5.55;;;4.68;;
6344;SDS011;3205;42.666;23.264;2023-05-07T04:39:26;8.52;;;5.35;;
6344;SDS011;3205;42.666;23.264;2023-05-07T04:41:52;5.65;;;5.15;;
6344;SDS011;3205;42.666;23.264;2023-05-07T04:44:18;5.93;;;5.43;;
6344;SDS011;3205;42.666;23.264;2023-05-07T04:46:45;7.47;;;6.45;;
6344;SDS011;3205;42.666;23.264;2023-05-07T04:49:11;7.40;;;5.88;;
6344;SDS011;3205;42.666;23.264;2023-05-07T04:51:37;9.68;;;6.20;;
6344;SDS011;3205;42.666;23.264;2023-05-07T04:54:03;10.38;;;6.30;;
6344;SDS011;3205;42.666;23.264;2023-05-07T04:56:29;6.95;;;6.03;;
6344;SDS011;3205;42.666;23.264;2023-05-07T04:58:55;6.78;;;6.18;;
6344;SDS011;3205;42.666;23.264;2023-05-07T05:01:21;7.93;;;6.57;;
6344;SDS011;3205;42.666;23.264;2023-05-07T05:03:48;7.70;;;6.50;;
6344;SDS011;3205;42.666;23.264;2023-05-07T05:06:14;8.25;;;6.00;;
6344;SDS011;3205;42.666;23.264;2023-05-07T05:08:40;8.13;;;6.78;;
6344;SDS011;3205;42.666;23.264;2023-05-07T05:11:06;6.70;;;6.20;;
6344;SDS011;3205;42.666;23.264;2023-05-07T05:13:32;6.95;;;6.22;;
6344;SDS011;3205;42.666;23.264;2023-05-07T05:15:59;6.28;;;5.57;;
6344;SDS011;3205;42.666;23.264;2023-05-07T05:18:25;8.15;;;5.78;;
6344;SDS011;3205;42.666;23.264;2023-05-07T05:20:51;8.30;;;6.13;;
6344;SDS011;3205;42.666;23.264;2023-05-07T05:23:17;9.27;;;6.10;;
6344;SDS011;3205;42.666;23.264;2023-05-07T05:25:44;7.55;;;6.15;;
6344;SDS011;3205;42.666;23.264;2023-05-07T05:28:10;10.18;;;6.22;;
6344;SDS011;3205;42.666;23.264;2023-05-07T05:30:36;7.55;;;5.88;;
6344;SDS011;3205;42.666;23.264;2023-05-07T05:33:02;7.25;;;6.10;;
6344;SDS011;3205;42.666;23.264;2023-05-07T05:35:29;6.78;;;6.07;;
6344;SDS011;3205;42.666;23.264;2023-05-07T05:37:56;6.95;;;5.70;;
6344;SDS011;3205;42.666;23.264;2023-05-07T05:40:22;11.57;;;7.03;;
6344;SDS011;3205;42.666;23.264;2023-05-07T05:42:48;12.27;;;6.68;;
6344;SDS011;3205;42.666;23.264;2023-05-07T05:45:14;10.15;;;5.72;;
6344;SDS011;3205;42.666;23.264;2023-05-07T05:47:40;8.02;;;5.97;;
6344;SDS011;3205;42.666;23.264;2023-05-07T05:50:07;6.65;;;6.05;;
6344;SDS011;3205;42.666;23.264;2023-05-07T05:52:33;6.53;;;5.93;;
6344;SDS011;3205;42.666;23.264;2023-05-07T05:54:59;6.10;;;5.60;;
6344;SDS011;3205;42.666;23.264;2023-05-07T05:57:26;6.57;;;5.72;;
6344;SDS011;3205;42.666;23.264;2023-05-07T05:59:52;7.10;;;6.35;;
6344;SDS011;3205;42.666;23.264;2023-05-07T06:02:18;6.90;;;6.20;;
6344;SDS011;3205;42.666;23.264;2023-05-07T06:04:46;6.90;;;6.20;;
6344;SDS011;3205;42.666;23.264;2023-05-07T06:07:12;9.18;;;6.32;;
6344;SDS011;3205;42.666;23.264;2023-05-07T06:09:38;6.57;;;6.00;;
6344;SDS011;3205;42.666;23.264;2023-05-07T06:12:05;9.60;;;5.65;;
6344;SDS011;3205;42.666;23.264;2023-05-07T06:14:31;9.27;;;6.18;;
6344;SDS011;3205;42.666;23.264;2023-05-07T06:16:57;8.18;;;5.80;;
6344;SDS011;3205;42.666;23.264;2023-05-07T06:19:23;6.88;;;6.18;;
6344;SDS011;3205;42.666;23.264;2023-05-07T06:21:51;9.70;;;5.97;;
6344;SDS011;3205;42.666;23.264;2023-05-07T06:24:17;6.90;;;6.03;;
6344;SDS011;3205;42.666;23.264;2023-05-07T06:26:43;6.88;;;5.40;;
6344;SDS011;3205;42.666;23.264;2023-05-07T06:29:10;8.60;;;6.80;;
6344;SDS011;3205;42.666;23.264;2023-05-07T06:31:36;6.40;;;5.55;;
6344;SDS011;3205;42.666;23.264;2023-05-07T06:34:02;7.03;;;5.45;;
6344;SDS011;3205;42.666;23.264;2023-05-07T06:36:28;5.88;;;5.38;;
6344;SDS011;3205;42.666;23.264;2023-05-07T06:38:54;7.38;;;6.00;;
6344;SDS011;3205;42.666;23.264;2023-05-07T06:41:21;6.47;;;5.90;;
6344;SDS011;3205;42.666;23.264;2023-05-07T06:43:47;6.53;;;5.18;;
6344;SDS011;3205;42.666;23.264;2023-05-07T06:46:14;9.00;;;6.57;;
6344;SDS011;3205;42.666;23.264;2023-05-07T06:48:41;6.13;;;5.55;;
6344;SDS011;3205;42.666;23.264;2023-05-07T06:51:07;6.05;;;5.55;;
6344;SDS011;3205;42.666;23.264;2023-05-07T06:53:33;8.48;;;5.68;;
6344;SDS011;3205;42.666;23.264;2023-05-07T06:56:00;8.57;;;5.30;;
6344;SDS011;3205;42.666;23.264;2023-05-07T06:58:27;6.50;;;5.45;;
6344;SDS011;3205;42.666;23.264;2023-05-07T07:00:53;7.88;;;5.20;;
6344;SDS011;3205;42.666;23.264;2023-05-07T07:03:19;6.72;;;5.20;;
6344;SDS011;3205;42.666;23.264;2023-05-07T07:05:45;6.47;;;4.88;;
6344;SDS011;3205;42.666;23.264;2023-05-07T07:08:12;6.75;;;5.43;;
6344;SDS011;3205;42.666;23.264;2023-05-07T07:10:38;5.93;;;5.32;;
6344;SDS011;3205;42.666;23.264;2023-05-07T07:13:04;7.60;;;5.38;;
6344;SDS011;3205;42.666;23.264;2023-05-07T07:15:33;11.35;;;5.13;;
6344;SDS011;3205;42.666;23.264;2023-05-07T07:17:59;6.82;;;4.53;;
6344;SDS011;3205;42.666;23.264;2023-05-07T07:20:26;5.15;;;4.65;;
6344;SDS011;3205;42.666;23.264;2023-05-07T07:22:52;8.77;;;5.45;;
6344;SDS011;3205;42.666;23.264;2023-05-07T07:25:18;5.70;;;5.20;;
6344;SDS011;3205;42.666;23.264;2023-05-07T07:27:44;5.65;;;4.65;;
6344;SDS011;3205;42.666;23.264;2023-05-07T07:30:11;5.25;;;4.78;;
6344;SDS011;3205;42.666;23.264;2023-05-07T07:32:37;5.63;;;5.10;;
6344;SDS011;3205;42.666;23.264;2023-05-07T07:35:03;6.97;;;5.18;;
6344;SDS011;3205;42.666;23.264;2023-05-07T07:37:31;5.75;;;5.07;;
6344;SDS011;3205;42.666;23.264;2023-05-07T07:39:57;5.28;;;4.72;;
6344;SDS011;3205;42.666;23.264;2023-05-07T07:42:23;4.88;;;4.38;;
6344;SDS011;3205;42.666;23.264;2023-05-07T07:44:49;9.55;;;4.72;;
6344;SDS011;3205;42.666;23.264;2023-05-07T07:47:15;5.85;;;4.55;;
6344;SDS011;3205;42.666;23.264;2023-05-07T07:49:41;5.82;;;4.22;;
6344;SDS011;3205;42.666;23.264;2023-05-07T07:52:07;5.22;;;4.10;;
6344;SDS011;3205;42.666;23.264;2023-05-07T07:54:34;4.78;;;4.38;;
6344;SDS011;3205;42.666;23.264;2023-05-07T07:57:00;5.00;;;4.55;;
6344;SDS011;3205;42.666;23.264;2023-05-07T07:59:26;5.20;;;4.75;;
6344;SDS011;3205;42.666;23.264;2023-05-07T08:01:52;5.35;;;4.80;;
6344;SDS011;3205;42.666;23.264;2023-05-07T08:04:20;5.88;;;5.32;;
6344;SDS011;3205;42.666;23.264;2023-05-07T08:06:48;7.60;;;5.20;;
6344;SDS011;3205;42.666;23.264;2023-05-07T08:09:14;7.82;;;6.07;;
6344;SDS011;3205;42.666;23.264;2023-05-07T08:11:41;8.30;;;5.55;;
6344;SDS011;3205;42.666;23.264;2023-05-07T08:14:07;5.93;;;5.30;;
6344;SDS011;3205;42.666;23.264;2023-05-07T08:16:34;10.30;;;5.55;;
6344;SDS011;3205;42.666;23.264;2023-05-07T08:19:00;6.88;;;5.88;;
6344;SDS011;3205;42.666;23.264;2023-05-07T08:21:26;6.75;;;6.13;;
6344;SDS011;3205;42.666;23.264;2023-05-07T08:23:52;6.93;;;5.70;;
6344;SDS011;3205;42.666;23.264;2023-05-07T08:26:18;7.25;;;6.30;;
6344;SDS011;3205;42.666;23.264;2023-05-07T08:28:46;7.90;;;5.25;;
6344;SDS011;3205;42.666;23.264;2023-05-07T08:31:12;7.82;;;6.50;;
6344;SDS011;3205;42.666;23.264;2023-05-07T08:33:38;7.60;;;6.28;;
6344;SDS011;3205;42.666;23.264;2023-05-07T08:36:04;10.68;;;6.07;;
6344;SDS011;3205;42.666;23.264;2023-05-07T08:38:30;9.93;;;6.05;;
6344;SDS011;3205;42.666;23.264;2023-05-07T08:40:56;7.50;;;5.07;;
6344;SDS011;3205;42.666;23.264;2023-05-07T08:43:23;8.55;;;5.43;;
6344;SDS011;3205;42.666;23.264;2023-05-07T08:45:53;7.57;;;5.13;;
6344;SDS011;3205;42.666;23.264;2023-05-07T08:48:21;5.70;;;5.03;;
6344;SDS011;3205;42.666;23.264;2023-05-07T08:50:52;5.97;;;5.40;;
6344;SDS011;3205;42.666;23.264;2023-05-07T08:53:19;5.90;;;4.97;;
6344;SDS011;3205;42.666;23.264;2023-05-07T08:55:46;7.95;;;4.88;;
6344;SDS011;3205;42.666;23.264;2023-05-07T08:58:13;7.32;;;5.03;;
6344;SDS011;3205;42.666;23.264;2023-05-07T09:00:39;8.80;;;4.90;;
6344;SDS011;3205;42.666;23.264;2023-05-07T09:03:07;8.73;;;5.50;;
6344;SDS011;3205;42.666;23.264;2023-05-07T09:05:37;4.78;;;4.45;;
6344;SDS011;3205;42.666;23.264;2023-05-07T09:08:05;5.90;;;5.13;;
6344;SDS011;3205;42.666;23.264;2023-05-07T09:10:33;7.65;;;4.97;;
6344;SDS011;3205;42.666;23.264;2023-05-07T09:12:59;6.57;;;5.05;;
6344;SDS011;3205;42.666;23.264;2023-05-07T09:15:25;7.80;;;4.85;;
6344;SDS011;3205;42.666;23.264;2023-05-07T09:17:52;6.15;;;4.50;;
6344;SDS011;3205;42.666;23.264;2023-05-07T09:20:18;5.30;;;4.75;;
6344;SDS011;3205;42.666;23.264;2023-05-07T09:22:44;8.43;;;4.80;;
6344;SDS011;3205;42.666;23.264;2023-05-07T09:25:10;6.30;;;4.32;;
6344;SDS011;3205;42.666;23.264;2023-05-07T09:27:37;5.57;;;4.43;;
6344;SDS011;3205;42.666;23.264;2023-05-07T09:30:03;5.38;;;4.35;;
6344;SDS011;3205;42.666;23.264;2023-05-07T09:32:32;5.97;;;4.70;;
6344;SDS011;3205;42.666;23.264;2023-05-07T09:35:00;5.85;;;4.93;;
6344;SDS011;3205;42.666;23.264;2023-05-07T09:37:28;5.78;;;5.20;;
6344;SDS011;3205;42.666;23.264;2023-05-07T09:39:57;6.43;;;4.63;;
6344;SDS011;3205;42.666;23.264;2023-05-07T09:42:24;7.57;;;4.90;;
6344;SDS011;3205;42.666;23.264;2023-05-07T09:44:51;6.07;;;4.03;;
6344;SDS011;3205;42.666;23.264;2023-05-07T09:47:18;4.25;;;3.95;;
6344;SDS011;3205;42.666;23.264;2023-05-07T09:49:46;4.40;;;4.00;;
6344;SDS011;3205;42.666;23.264;2023-05-07T09:52:13;5.20;;;4.68;;
6344;SDS011;3205;42.666;23.264;2023-05-07T09:54:41;4.97;;;4.47;;
6344;SDS011;3205;42.666;23.264;2023-05-07T09:57:09;6.78;;;4.22;;
6344;SDS011;3205;42.666;23.264;2023-05-07T09:59:37;6.85;;;4.28;;
6344;SDS011;3205;42.666;23.264;2023-05-07T10:02:04;7.18;;;4.50;;
6344;SDS011;3205;42.666;23.264;2023-05-07T10:04:31;5.85;;;4.32;;
6344;SDS011;3205;42.666;23.264;2023-05-07T10:06:57;4.72;;;3.90;;
6344;SDS011;3205;42.666;23.264;2023-05-07T10:09:25;4.78;;;4.05;;
6344;SDS011;3205;42.666;23.264;2023-05-07T10:11:52;3.50;;;3.20;;
6344;SDS011;3205;42.666;23.264;2023-05-07T10:14:20;5.95;;;3.10;;
6344;SDS011;3205;42.666;23.264;2023-05-07T10:16:46;5.65;;;3.92;;
6344;SDS011;3205;42.666;23.264;2023-05-07T10:19:13;6.35;;;3.70;;
6344;SDS011;3205;42.666;23.264;2023-05-07T10:21:42;9.43;;;4.28;;
6344;SDS011;3205;42.666;23.264;2023-05-07T10:24:16;3.97;;;3.25;;
6344;SDS011;3205;42.666;23.264;2023-05-07T10:26:46;3.30;;;3.00;;
6344;SDS011;3205;42.666;23.264;2023-05-07T10:29:18;3.72;;;2.97;;
6344;SDS011;3205;42.666;23.264;2023-05-07T10:31:53;3.60;;;3.30;;
6344;SDS011;3205;42.666;23.264;2023-05-07T10:34:24;4.60;;;3.40;;
6344;SDS011;3205;42.666;23.264;2023-05-07T10:36:53;4.78;;;3.30;;
6344;SDS011;3205;42.666;23.264;2023-05-07T10:39:21;3.60;;;2.92;;
6344;SDS011;3205;42.666;23.264;2023-05-07T10:41:48;8.48;;;4.07;;
6344;SDS011;3205;42.666;23.264;2023-05-07T10:44:25;7.95;;;3.83;;
6344;SDS011;3205;42.666;23.264;2023-05-07T10:47:05;3.85;;;3.42;;
6344;SDS011;3205;42.666;23.264;2023-05-07T10:49:34;6.25;;;3.95;;
6344;SDS011;3205;42.666;23.264;2023-05-07T10:52:16;4.28;;;3.30;;
6344;SDS011;3205;42.666;23.264;2023-05-07T10:54:44;6.05;;;3.67;;
6344;SDS011;3205;42.666;23.264;2023-05-07T11:00:01;4.35;;;3.78;;
6344;SDS011;3205;42.666;23.264;2023-05-07T11:05:28;3.60;;;3.30;;
6344;SDS011;3205;42.666;23.264;2023-05-07T11:07:56;6.97;;;3.75;;
6344;SDS011;3205;42.666;23.264;2023-05-07T11:10:23;7.25;;;3.78;;
6344;SDS011;3205;42.666;23.264;2023-05-07T11:13:09;4.50;;;3.30;;
6344;SDS011;3205;42.666;23.264;2023-05-07T11:15:39;4.60;;;3.45;;
6344;SDS011;3205;42.666;23.264;2023-05-07T11:18:08;11.88;;;3.70;;
6344;SDS011;3205;42.666;23.264;2023-05-07T11:20:47;4.75;;;3.45;;
6344;SDS011;3205;42.666;23.264;2023-05-07T11:26:21;3.30;;;2.80;;
6344;SDS011;3205;42.666;23.264;2023-05-07T11:28:47;3.10;;;2.80;;
6344;SDS011;3205;42.666;23.264;2023-05-07T11:31:14;6.40;;;3.15;;
6344;SDS011;3205;42.666;23.264;2023-05-07T11:33:46;3.63;;;2.80;;
6344;SDS011;3205;42.666;23.264;2023-05-07T11:36:13;7.63;;;3.13;;
6344;SDS011;3205;42.666;23.264;2023-05-07T11:38:39;3.83;;;3.15;;
6344;SDS011;3205;42.666;23.264;2023-05-07T11:41:05;4.75;;;3.58;;
6344;SDS011;3205;42.666;23.264;2023-05-07T11:43:33;3.67;;;3.10;;
6344;SDS011;3205;42.666;23.264;2023-05-07T11:46:07;4.32;;;3.92;;
6344;SDS011;3205;42.666;23.264;2023-05-07T11:48:37;5.55;;;3.28;;
6344;SDS011;3205;42.666;23.264;2023-05-07T11:51:04;3.33;;;3.08;;
6344;SDS011;3205;42.666;23.264;2023-05-07T11:53:41;4.07;;;3.08;;
6344;SDS011;3205;42.666;23.264;2023-05-07T11:56:08;4.50;;;3.30;;
6344;SDS011;3205;42.666;23.264;2023-05-07T11:58:35;4.22;;;3.15;;
6344;SDS011;3205;42.666;23.264;2023-05-07T12:01:01;3.00;;;2.80;;
6344;SDS011;3205;42.666;23.264;2023-05-07T12:03:27;3.53;;;3.22;;
6344;SDS011;3205;42.666;23.264;2023-05-07T12:05:54;5.50;;;3.60;;
6344;SDS011;3205;42.666;23.264;2023-05-07T12:08:20;3.78;;;3.38;;
6344;SDS011;3205;42.666;23.264;2023-05-07T12:10:47;4.72;;;3.00;;
6344;SDS011;3205;42.666;23.264;2023-05-07T12:13:16;5.07;;;3.35;;
6344;SDS011;3205;42.666;23.264;2023-05-07T12:15:42;7.28;;;3.35;;
6344;SDS011;3205;42.666;23.264;2023-05-07T12:18:10;3.38;;;3.17;;
6344;SDS011;3205;42.666;23.264;2023-05-07T12:20:36;3.38;;;3.00;;
6344;SDS011;3205;42.666;23.264;2023-05-07T12:23:03;3.50;;;3.20;;
6344;SDS011;3205;42.666;23.264;2023-05-07T12:25:30;5.55;;;3.20;;
6344;SDS011;3205;42.666;23.264;2023-05-07T12:27:56;3.42;;;3.13;;
6344;SDS011;3205;42.666;23.264;2023-05-07T12:30:23;6.43;;;2.95;;
6344;SDS011;3205;42.666;23.264;2023-05-07T12:32:52;3.45;;;3.10;;
6344;SDS011;3205;42.666;23.264;2023-05-07T12:35:25;3.55;;;3.25;;
6344;SDS011;3205;42.666;23.264;2023-05-07T12:37:54;4.88;;;3.42;;
6344;SDS011;3205;42.666;23.264;2023-05-07T12:40:21;3.40;;;2.60;;
6344;SDS011;3205;42.666;23.264;2023-05-07T12:42:48;3.92;;;2.75;;
6344;SDS011;3205;42.666;23.264;2023-05-07T12:45:19;3.85;;;2.67;;
6344;SDS011;3205;42.666;23.264;2023-05-07T12:47:45;4.97;;;2.85;;
6344;SDS011;3205;42.666;23.264;2023-05-07T12:50:12;3.15;;;2.90;;
6344;SDS011;3205;42.666;23.264;2023-05-07T12:52:39;5.30;;;3.05;;
6344;SDS011;3205;42.666;23.264;2023-05-07T12:55:05;3.30;;;2.90;;
6344;SDS011;3205;42.666;23.264;2023-05-07T12:57:37;4.55;;;3.00;;
6344;SDS011;3205;42.666;23.264;2023-05-07T13:00:05;4.38;;;2.83;;
6344;SDS011;3205;42.666;23.264;2023-05-07T13:02:32;5.38;;;3.03;;
6344;SDS011;3205;42.666;23.264;2023-05-07T13:04:59;3.47;;;3.13;;
6344;SDS011;3205;42.666;23.264;2023-05-07T13:07:25;2.92;;;2.72;;
6344;SDS011;3205;42.666;23.264;2023-05-07T13:09:51;7.47;;;3.10;;
6344;SDS011;3205;42.666;23.264;2023-05-07T13:12:17;3.40;;;3.10;;
6344;SDS011;3205;42.666;23.264;2023-05-07T13:14:44;3.97;;;3.17;;
6344;SDS011;3205;42.666;23.264;2023-05-07T13:17:10;3.25;;;2.95;;
6344;SDS011;3205;42.666;23.264;2023-05-07T13:19:36;3.92;;;2.72;;
6344;SDS011;3205;42.666;23.264;2023-05-07T13:22:02;4.00;;;2.95;;
6344;SDS011;3205;42.666;23.264;2023-05-07T13:24:29;3.83;;;2.65;;
6344;SDS011;3205;42.666;23.264;2023-05-07T13:26:55;3.20;;;2.90;;
6344;SDS011;3205;42.666;23.264;2023-05-07T13:29:21;4.43;;;3.05;;
6344;SDS011;3205;42.666;23.264;2023-05-07T13:31:51;5.30;;;2.75;;
6344;SDS011;3205;42.666;23.264;2023-05-07T13:34:17;4.78;;;3.00;;
6344;SDS011;3205;42.666;23.264;2023-05-07T13:36:43;3.65;;;3.10;;
6344;SDS011;3205;42.666;23.264;2023-05-07T13:39:09;3.20;;;2.92;;
6344;SDS011;3205;42.666;23.264;2023-05-07T13:41:35;4.85;;;3.15;;
6344;SDS011;3205;42.666;23.264;2023-05-07T13:44:01;4.80;;;2.60;;
6344;SDS011;3205;42.666;23.264;2023-05-07T13:46:27;4.28;;;3.50;;
6344;SDS011;3205;42.666;23.264;2023-05-07T13:48:55;4.55;;;3.15;;
6344;SDS011;3205;42.666;23.264;2023-05-07T13:51:21;3.42;;;2.72;;
6344;SDS011;3205;42.666;23.264;2023-05-07T13:53:47;7.50;;;3.55;;
6344;SDS011;3205;42.666;23.264;2023-05-07T13:56:13;3.28;;;2.97;;
6344;SDS011;3205;42.666;23.264;2023-05-07T13:58:41;2.90;;;2.60;;
6344;SDS011;3205;42.666;23.264;2023-05-07T14:01:08;5.30;;;2.75;;
6344;SDS011;3205;42.666;23.264;2023-05-07T14:03:35;3.83;;;2.60;;
6344;SDS011;3205;42.666;23.264;2023-05-07T14:06:03;5.07;;;3.22;;
6344;SDS011;3205;42.666;23.264;2023-05-07T14:08:29;3.17;;;2.90;;
6344;SDS011;3205;42.666;23.264;2023-05-07T14:10:55;3.00;;;2.80;;
6344;SDS011;3205;42.666;23.264;2023-05-07T14:13:22;3.83;;;2.97;;
6344;SDS011;3205;42.666;23.264;2023-05-07T14:15:48;3.83;;;3.15;;
6344;SDS011;3205;42.666;23.264;2023-05-07T14:18:14;3.10;;;2.80;;
6344;SDS011;3205;42.666;23.264;2023-05-07T14:20:42;2.83;;;2.63;;
6344;SDS011;3205;42.666;23.264;2023-05-07T14:23:09;6.00;;;3.03;;
6344;SDS011;3205;42.666;23.264;2023-05-07T14:25:35;6.20;;;2.83;;
6344;SDS011;3205;42.666;23.264;2023-05-07T14:28:01;6.32;;;2.90;;
6344;SDS011;3205;42.666;23.264;2023-05-07T14:30:27;3.05;;;2.85;;
6344;SDS011;3205;42.666;23.264;2023-05-07T14:32:53;3.20;;;3.00;;
6344;SDS011;3205;42.666;23.264;2023-05-07T14:35:19;6.90;;;3.10;;
6344;SDS011;3205;42.666;23.264;2023-05-07T14:37:45;4.53;;;2.75;;
6344;SDS011;3205;42.666;23.264;2023-05-07T14:40:12;5.80;;;2.70;;
6344;SDS011;3205;42.666;23.264;2023-05-07T14:42:39;5.38;;;3.42;;
6344;SDS011;3205;42.666;23.264;2023-05-07T14:45:06;6.28;;;2.92;;
6344;SDS011;3205;42.666;23.264;2023-05-07T14:47:33;4.97;;;2.88;;
6344;SDS011;3205;42.666;23.264;2023-05-07T14:49:59;3.50;;;2.75;;
6344;SDS011;3205;42.666;23.264;2023-05-07T14:52:26;4.15;;;3.15;;
6344;SDS011;3205;42.666;23.264;2023-05-07T14:54:52;5.05;;;2.92;;
6344;SDS011;3205;42.666;23.264;2023-05-07T14:57:19;4.05;;;3.00;;
6344;SDS011;3205;42.666;23.264;2023-05-07T14:59:45;2.90;;;2.70;;
6344;SDS011;3205;42.666;23.264;2023-05-07T15:02:12;3.28;;;2.80;;
6344;SDS011;3205;42.666;23.264;2023-05-07T15:04:38;3.30;;;3.00;;